Juliana Airport, Saint Maartin

11:42 PM AST on August 28, 2014 (GMT -0400)
Cole Bay, St.Maarten | Change Station
CLOSE
Current Station
Personal Weather Station
Location: Cole Bay, SINT MAARTEN
Elevation: 171 ft
Nearby Weather Stations

Elev 171 ft 18.04 °N, 63.08 °W | Updated 2 minutes ago

Partly Cloudy
Partly Cloudy
77.9 °F
Feels Like 80 °F
N
1.0
Wind Variable Wind from SE
Gusts 3.0 mph

Today
High -- | Low -- °F
--% Chance of Precip.
Yesterday
High -- | Low -- °F
Precip. -- in
5:57 AM 6:29 PM
Waxing Crescent, 11% visible
Pressure 30.04 in
Visibility 6.2 miles
Clouds Few 1800 ft
Heat Index 80 °F
Dew Point 74 °F
Humidity 89%
Rainfall 0.03 in
Snow Depth Not available.
UV 0 out of 12
Pollen Not available.
Air Quality Not available.
Flu Activity Not available.
METAR TNCM 290200Z VRB03KT 9999 FEW018TCU 27/24 Q1017 A3003

More Conditions Fewer Conditions

Pressure 30.04 in
Visibility 6.2 miles
Clouds Few 1800 ft
Heat Index 80 °F
Dew Point 74 °F
Humidity 89%
Rainfall 0.03 in
Snow Depth Not available.
UV 0 out of 12
Pollen Not available.
Air Quality Not available.
Flu Activity Not available.
METAR TNCM 290200Z VRB03KT 9999 FEW018TCU 27/24 Q1017 A3003

More Conditions Fewer Conditions

10-Day Weather Forecast

Almanac

Astronomy

Aug. 28, 2014 Rise Set
Actual Time 5:57 AM AST 6:29 PM AST
Civil Twilight 5:35 AM AST 6:51 PM AST
Nautical Twilight 5:09 AM AST 7:17 PM AST
Astronomical Twilight 4:43 AM AST 7:43 PM AST
Moon 8:16 AM AST (8/28) 8:24 PM AST (8/28)
Length of Visible Light 13h 16m
Length of Day
12h 32m
Tomorrow will be 0m 58s shorter.
Waxing Crescent, 11% of the Moon is Illuminated
Today
Waxing Crescent
Sep 2
First Quarter
Sep 8
Full
Sep 15
Last Quarter
Sep 24
New

Today's Extremes

Country Highs Country Lows

Community

WunderPhotos

Upload Photos

1,748,182 photos uploaded!

Nearby

Snow Depth

Not available.

Earthquake Activity

City Distance Mag. Time & Date
No recent earthquake activity has been reported nearby.
Minimum magnitude displayed is 2.5.

Coastal Water Temperatures

Place Temperature
No Stations Reporting

Nearby Weather Stations